createdAt,value
2022-12-27T00:00:11.165Z,7.85
2022-12-27T00:03:05.729Z,7.94
2022-12-27T00:05:37.429Z,9.56
2022-12-27T00:08:09.185Z,9.57
2022-12-27T00:10:46.305Z,8.80
2022-12-27T00:13:19.312Z,8.30
2022-12-27T00:15:52.799Z,8.04
2022-12-27T00:18:24.637Z,7.80
2022-12-27T00:21:08.435Z,7.66
2022-12-27T00:23:42.894Z,7.67
2022-12-27T00:26:19.295Z,7.68
2022-12-27T00:28:52.043Z,7.56
2022-12-27T00:31:25.373Z,7.50
2022-12-27T00:33:59.703Z,7.38
2022-12-27T00:36:32.904Z,7.43
2022-12-27T00:39:05.315Z,7.27
2022-12-27T00:41:37.203Z,7.29
2022-12-27T00:44:09.732Z,7.37
2022-12-27T00:46:41.466Z,7.35
2022-12-27T00:49:13.286Z,7.42
2022-12-27T00:51:45.046Z,7.38
2022-12-27T00:54:16.906Z,7.22
2022-12-27T00:56:48.641Z,7.10
2022-12-27T00:59:20.364Z,7.04
2022-12-27T01:01:52.442Z,6.94
2022-12-27T01:04:24.390Z,6.84
2022-12-27T01:06:56.145Z,6.78
2022-12-27T01:09:28.245Z,6.74
2022-12-27T01:12:00.012Z,6.78
2022-12-27T01:14:32.473Z,6.66
2022-12-27T01:17:04.185Z,6.69
2022-12-27T01:19:37.909Z,6.66
2022-12-27T01:22:09.999Z,6.73
2022-12-27T01:24:41.760Z,6.51
2022-12-27T01:27:13.709Z,6.58
2022-12-27T01:29:45.353Z,6.51
2022-12-27T01:32:17.063Z,6.65
2022-12-27T01:34:48.743Z,6.77
2022-12-27T01:37:20.482Z,6.54
2022-12-27T01:39:52.263Z,6.60
2022-12-27T01:42:42.003Z,6.61
2022-12-27T01:45:17.711Z,6.50
2022-12-27T01:47:55.138Z,6.50
2022-12-27T01:50:32.253Z,6.51
2022-12-27T01:53:12.566Z,6.29
2022-12-27T01:55:49.954Z,6.28
2022-12-27T01:58:26.548Z,6.24
2022-12-27T02:01:00.226Z,6.25
2022-12-27T02:03:36.181Z,6.35
2022-12-27T02:06:10.634Z,6.36
2022-12-27T02:08:50.832Z,6.32
2022-12-27T02:11:41.458Z,6.43
2022-12-27T02:14:14.554Z,6.34
2022-12-27T02:16:47.067Z,6.30
2022-12-27T02:19:27.001Z,6.37
2022-12-27T02:22:32.032Z,6.32
2022-12-27T02:25:19.823Z,6.45
2022-12-27T02:28:15.289Z,6.27
2022-12-27T02:30:51.753Z,6.39
2022-12-27T02:33:29.173Z,6.28
2022-12-27T02:36:05.790Z,6.28
2022-12-27T02:38:42.067Z,6.21
2022-12-27T02:41:32.310Z,6.21
2022-12-27T02:44:21.554Z,6.17
2022-12-27T02:47:12.390Z,6.11
2022-12-27T02:50:02.089Z,6.17
2022-12-27T02:53:02.176Z,6.20
2022-12-27T02:56:09.505Z,6.18
2022-12-27T02:58:51.211Z,6.06
2022-12-27T03:01:50.228Z,6.04
2022-12-27T03:04:32.794Z,6.13
2022-12-27T03:07:26.886Z,6.12
2022-12-27T03:10:29.379Z,6.10
2022-12-27T03:13:31.738Z,6.05
2022-12-27T03:16:19.383Z,6.07
2022-12-27T03:19:00.498Z,6.17
2022-12-27T03:21:52.612Z,6.07
2022-12-27T03:24:46.826Z,6.12
2022-12-27T03:27:28.278Z,6.15
2022-12-27T03:30:21.229Z,6.05
2022-12-27T03:33:15.728Z,6.07
2022-12-27T03:36:07.763Z,6.10
2022-12-27T03:38:48.278Z,6.06
2022-12-27T03:41:43.528Z,6.00
2022-12-27T03:44:25.657Z,6.09
2022-12-27T03:47:01.010Z,6.12
2022-12-27T03:49:37.483Z,6.08
2022-12-27T03:52:12.575Z,6.02
2022-12-27T03:54:48.112Z,5.99
2022-12-27T03:57:23.287Z,6.06
2022-12-27T03:59:55.432Z,6.07
2022-12-27T04:02:27.605Z,5.99
2022-12-27T04:04:59.734Z,5.94
2022-12-27T04:07:31.976Z,6.05
2022-12-27T04:10:21.339Z,5.97
2022-12-27T04:13:10.634Z,5.97
2022-12-27T04:15:59.670Z,5.97
2022-12-27T04:18:48.883Z,5.93
2022-12-27T04:21:38.860Z,5.91
2022-12-27T04:24:28.719Z,5.95
2022-12-27T04:27:17.659Z,5.92
2022-12-27T04:30:06.762Z,5.92
2022-12-27T04:32:56.027Z,6.07
2022-12-27T04:35:28.135Z,6.07
2022-12-27T04:37:59.803Z,5.94
2022-12-27T04:40:49.901Z,5.95
2022-12-27T04:43:39.077Z,5.90
2022-12-27T04:46:37.106Z,6.00
2022-12-27T04:49:30.185Z,5.93
2022-12-27T04:52:20.068Z,5.91
2022-12-27T04:55:00.847Z,5.87
2022-12-27T04:57:32.960Z,5.85
2022-12-27T05:00:22.498Z,5.91
2022-12-27T05:02:54.638Z,5.85
2022-12-27T05:05:26.847Z,5.83
2022-12-27T05:08:17.059Z,5.82
2022-12-27T05:11:09.324Z,5.83
2022-12-27T05:13:58.651Z,5.88
2022-12-27T05:16:32.307Z,5.87
2022-12-27T05:19:04.633Z,5.87
2022-12-27T05:21:39.270Z,5.81
2022-12-27T05:24:29.384Z,5.77
2022-12-27T05:27:01.522Z,5.73
2022-12-27T05:29:35.976Z,5.67
2022-12-27T05:32:12.813Z,5.68
2022-12-27T05:34:45.101Z,5.62
2022-12-27T05:37:16.951Z,5.61
2022-12-27T05:39:49.002Z,5.58
2022-12-27T05:42:20.956Z,5.58
2022-12-27T05:44:52.601Z,5.49
2022-12-27T05:47:24.374Z,5.41
2022-12-27T05:49:56.396Z,5.42
2022-12-27T05:52:28.297Z,5.38
2022-12-27T05:55:00.459Z,5.28
2022-12-27T05:57:32.237Z,5.29
2022-12-27T06:00:05.271Z,5.28
2022-12-27T06:02:44.239Z,5.28
2022-12-27T06:05:16.267Z,5.22
2022-12-27T06:07:47.909Z,5.13
2022-12-27T06:10:19.708Z,5.05
2022-12-27T06:12:51.434Z,5.01
2022-12-27T06:15:23.192Z,5.02
2022-12-27T06:17:55.024Z,5.00
2022-12-27T06:20:27.116Z,4.97
2022-12-27T06:23:01.225Z,4.99
2022-12-27T06:25:33.348Z,4.96
2022-12-27T06:28:06.289Z,4.97
2022-12-27T06:30:38.223Z,4.93
2022-12-27T06:33:09.943Z,4.97
2022-12-27T06:35:41.790Z,4.94
2022-12-27T06:38:13.531Z,4.92
2022-12-27T06:40:45.319Z,4.93
2022-12-27T06:43:17.244Z,4.86
2022-12-27T06:45:58.464Z,4.84
2022-12-27T06:48:30.906Z,4.81
2022-12-27T06:51:06.788Z,4.84
2022-12-27T06:53:39.030Z,4.81
2022-12-27T06:56:13.289Z,4.74
2022-12-27T06:58:45.236Z,4.79
2022-12-27T07:01:19.594Z,4.79
2022-12-27T07:03:53.510Z,4.69
2022-12-27T07:06:26.217Z,4.79
2022-12-27T07:08:57.024Z,4.72
2022-12-27T07:11:32.494Z,4.64
2022-12-27T07:14:05.205Z,4.53
2022-12-27T07:16:37.030Z,4.64
2022-12-27T07:19:10.330Z,4.80
2022-12-27T07:21:42.110Z,4.71
2022-12-27T07:24:13.946Z,4.76
2022-12-27T07:26:46.118Z,4.66
2022-12-27T07:29:18.440Z,4.58
2022-12-27T07:31:50.401Z,4.55
2022-12-27T07:34:22.981Z,4.82
2022-12-27T07:36:54.818Z,4.68
2022-12-27T07:39:26.461Z,4.60
2022-12-27T07:42:01.875Z,4.58
2022-12-27T07:44:40.480Z,4.70
2022-12-27T07:47:12.925Z,4.64
2022-12-27T07:49:44.618Z,4.74
2022-12-27T07:52:16.437Z,4.70
2022-12-27T07:54:48.200Z,4.69
2022-12-27T07:57:20.204Z,4.65
2022-12-27T07:59:51.845Z,4.64
2022-12-27T08:02:24.029Z,4.64
2022-12-27T08:04:55.912Z,4.71
2022-12-27T08:07:28.084Z,4.63
2022-12-27T08:10:02.240Z,4.37
2022-12-27T08:12:34.487Z,4.47
2022-12-27T08:15:07.520Z,4.72
2022-12-27T08:17:39.696Z,4.69
2022-12-27T08:20:15.822Z,4.40
2022-12-27T08:22:48.006Z,4.62
2022-12-27T08:25:19.858Z,4.36
2022-12-27T08:27:52.234Z,4.40
2022-12-27T08:30:24.006Z,4.31
2022-12-27T08:32:55.843Z,4.28
2022-12-27T08:35:52.360Z,4.36
2022-12-27T08:38:21.351Z,4.40
2022-12-27T08:40:53.168Z,4.34
2022-12-27T08:43:25.148Z,4.31
2022-12-27T08:46:00.774Z,4.28
2022-12-27T08:48:33.699Z,4.49
2022-12-27T08:51:12.607Z,4.44
2022-12-27T08:53:46.382Z,4.55
2022-12-27T08:56:18.098Z,4.46
2022-12-27T08:58:52.546Z,4.41
2022-12-27T09:01:25.703Z,4.56
2022-12-27T09:03:57.757Z,4.49
2022-12-27T09:06:29.550Z,4.53
2022-12-27T09:09:01.536Z,4.50
2022-12-27T09:11:35.230Z,4.58
2022-12-27T09:14:07.918Z,4.68
2022-12-27T09:16:41.234Z,4.74
2022-12-27T09:19:11.712Z,4.72
2022-12-27T09:21:44.414Z,4.64
2022-12-27T09:24:15.094Z,4.61
2022-12-27T09:26:46.872Z,4.60
2022-12-27T09:29:19.360Z,4.67
2022-12-27T09:31:52.078Z,4.70
2022-12-27T09:34:22.401Z,4.76
2022-12-27T09:36:54.277Z,4.85
2022-12-27T09:39:25.431Z,4.88
2022-12-27T09:45:01.805Z,4.91
2022-12-27T09:47:40.098Z,4.98
2022-12-27T09:50:18.390Z,4.92
2022-12-27T09:53:00.587Z,4.90
2022-12-27T09:55:47.070Z,4.94
2022-12-27T09:58:39.567Z,5.10
2022-12-27T10:01:22.859Z,5.17
2022-12-27T10:03:55.631Z,5.10
2022-12-27T10:06:41.581Z,5.05
2022-12-27T10:09:32.852Z,5.03
2022-12-27T10:12:15.234Z,5.01
2022-12-27T10:15:02.622Z,5.11
2022-12-27T10:17:53.081Z,5.18
2022-12-27T10:20:36.308Z,5.18
2022-12-27T10:23:13.676Z,5.19
2022-12-27T10:25:47.868Z,5.18
2022-12-27T10:28:25.591Z,5.26
2022-12-27T10:31:02.584Z,5.28
2022-12-27T10:33:36.331Z,5.25
2022-12-27T10:36:14.188Z,5.28
2022-12-27T10:38:49.061Z,5.60
2022-12-27T10:41:39.603Z,5.36
2022-12-27T10:44:13.766Z,5.31
2022-12-27T10:46:50.732Z,5.35
2022-12-27T10:49:28.186Z,5.39
2022-12-27T10:52:08.024Z,5.50
2022-12-27T10:54:52.723Z,5.55
2022-12-27T10:57:29.757Z,5.39
2022-12-27T11:00:19.105Z,5.35
2022-12-27T11:02:55.639Z,5.37
2022-12-27T11:05:30.998Z,5.41
2022-12-27T11:08:20.177Z,5.40
2022-12-27T11:11:11.923Z,5.39
2022-12-27T11:13:44.072Z,5.51
2022-12-27T11:16:27.954Z,5.48
2022-12-27T11:19:02.433Z,5.37
2022-12-27T11:21:38.820Z,5.36
2022-12-27T11:27:04.853Z,5.47
2022-12-27T11:29:37.942Z,5.50
2022-12-27T11:32:11.142Z,5.51
2022-12-27T11:34:49.669Z,5.55
2022-12-27T11:37:25.529Z,5.63
2022-12-27T11:40:12.375Z,5.61
2022-12-27T11:42:48.410Z,5.64
2022-12-27T11:45:27.782Z,5.58
2022-12-27T11:48:06.107Z,5.68
2022-12-27T11:50:51.308Z,5.72
2022-12-27T11:53:44.232Z,5.64
2022-12-27T11:56:27.393Z,5.64
2022-12-27T11:59:16.325Z,5.74
2022-12-27T12:02:19.615Z,5.85
2022-12-27T12:05:12.649Z,5.84
2022-12-27T12:08:06.157Z,5.80
2022-12-27T12:10:50.482Z,5.73
2022-12-27T12:13:53.117Z,5.82
2022-12-27T12:16:55.906Z,5.77
2022-12-27T12:19:49.914Z,5.72
2022-12-27T12:22:40.448Z,5.71
2022-12-27T12:25:37.647Z,5.70
2022-12-27T12:28:57.698Z,5.75
2022-12-27T12:31:42.382Z,5.61
2022-12-27T12:34:36.017Z,5.80
2022-12-27T12:37:18.822Z,5.85
2022-12-27T12:40:02.637Z,5.77
2022-12-27T12:42:44.235Z,5.76
2022-12-27T12:45:28.548Z,5.62
2022-12-27T12:48:20.527Z,5.63
2022-12-27T12:51:11.870Z,5.58
2022-12-27T12:54:01.122Z,5.47
2022-12-27T12:56:54.871Z,5.51
2022-12-27T13:00:12.635Z,5.54
2022-12-27T13:03:12.051Z,5.57
2022-12-27T13:05:50.228Z,5.52
2022-12-27T13:08:30.979Z,5.52
2022-12-27T13:11:23.051Z,5.56
2022-12-27T13:14:07.822Z,5.44
2022-12-27T13:16:51.619Z,5.43
2022-12-27T13:19:42.431Z,5.51
2022-12-27T13:22:22.383Z,5.54
2022-12-27T13:25:04.679Z,5.57
2022-12-27T13:27:43.699Z,5.54
2022-12-27T13:30:22.420Z,5.57
2022-12-27T13:33:22.922Z,5.58
2022-12-27T13:36:08.687Z,5.59
2022-12-27T13:39:02.334Z,5.53
2022-12-27T13:41:51.113Z,5.53
2022-12-27T13:44:55.421Z,5.50
2022-12-27T13:47:53.363Z,5.56
2022-12-27T13:50:44.698Z,5.53
2022-12-27T13:53:39.032Z,5.67
2022-12-27T13:56:52.985Z,5.76
2022-12-27T13:59:46.184Z,5.80
2022-12-27T14:02:50.190Z,5.81
2022-12-27T14:06:03.855Z,5.72
2022-12-27T14:08:41.533Z,5.72
2022-12-27T14:11:28.251Z,5.55
2022-12-27T14:14:02.110Z,5.56
2022-12-27T14:16:50.516Z,5.73
2022-12-27T14:19:52.169Z,5.81
2022-12-27T14:22:56.655Z,5.77
2022-12-27T14:25:59.319Z,5.64
2022-12-27T14:29:01.643Z,5.66
2022-12-27T14:32:09.701Z,5.77
2022-12-27T14:35:25.441Z,5.75
2022-12-27T14:38:32.452Z,5.72
2022-12-27T14:41:25.605Z,5.70
2022-12-27T14:44:13.541Z,5.63
2022-12-27T14:47:10.039Z,5.66
2022-12-27T14:50:15.185Z,5.60
2022-12-27T14:53:22.702Z,5.54
2022-12-27T14:56:08.241Z,5.55
2022-12-27T14:58:49.632Z,5.70
2022-12-27T15:01:39.203Z,5.63
2022-12-27T15:04:44.524Z,5.63
2022-12-27T15:07:42.862Z,5.57
2022-12-27T15:10:25.062Z,5.59
2022-12-27T15:13:07.059Z,5.70
2022-12-27T15:15:53.976Z,5.66
2022-12-27T15:18:48.144Z,5.57
2022-12-27T15:21:41.635Z,5.66
2022-12-27T15:24:28.701Z,5.66
2022-12-27T15:27:08.983Z,5.62
2022-12-27T15:29:53.540Z,5.65
2022-12-27T15:32:35.401Z,5.63
2022-12-27T15:35:20.045Z,5.60
2022-12-27T15:38:04.177Z,5.58
2022-12-27T15:40:47.998Z,5.59
2022-12-27T15:43:40.049Z,5.59
2022-12-27T15:46:36.374Z,5.58
2022-12-27T15:49:35.989Z,5.57
2022-12-27T15:52:16.328Z,5.56
2022-12-27T15:55:07.061Z,5.66
2022-12-27T15:57:56.566Z,5.67
2022-12-27T16:00:34.529Z,5.61
2022-12-27T16:03:35.478Z,5.60
2022-12-27T16:06:10.409Z,5.55
2022-12-27T16:08:43.392Z,5.55
2022-12-27T16:11:16.256Z,5.55
2022-12-27T16:13:50.845Z,5.59
2022-12-27T16:16:53.854Z,5.58
2022-12-27T16:20:00.441Z,5.63
2022-12-27T16:22:39.859Z,5.66
2022-12-27T16:25:34.392Z,5.62
2022-12-27T16:28:10.285Z,5.61
2022-12-27T16:30:49.226Z,5.57
2022-12-27T16:33:35.454Z,5.58
2022-12-27T16:36:19.155Z,5.59
2022-12-27T16:39:01.673Z,5.59
2022-12-27T16:42:01.397Z,5.54
2022-12-27T16:44:47.031Z,5.52
2022-12-27T16:47:40.451Z,5.51
2022-12-27T16:50:34.783Z,5.48
2022-12-27T16:53:25.674Z,5.42
2022-12-27T16:56:25.310Z,5.43
2022-12-27T16:58:57.549Z,5.41
2022-12-27T17:01:47.239Z,5.47
2022-12-27T17:04:51.839Z,5.49
2022-12-27T17:07:46.843Z,5.47
2022-12-27T17:10:54.948Z,5.46
2022-12-27T17:13:36.339Z,5.53
2022-12-27T17:16:21.723Z,5.55
2022-12-27T17:18:57.957Z,5.57
2022-12-27T17:21:35.075Z,5.64
2022-12-27T17:24:11.371Z,5.67
2022-12-27T17:27:04.594Z,5.61
2022-12-27T17:30:07.865Z,5.63
2022-12-27T17:32:52.822Z,5.63
2022-12-27T17:35:32.921Z,5.54
2022-12-27T17:38:16.231Z,5.50
2022-12-27T17:40:58.591Z,5.49
2022-12-27T17:43:58.322Z,5.47
2022-12-27T17:46:40.795Z,5.47
2022-12-27T17:49:13.504Z,5.53
2022-12-27T17:52:05.600Z,5.44
2022-12-27T17:54:55.315Z,5.36
2022-12-27T17:57:45.690Z,5.31
2022-12-27T18:00:29.098Z,5.27
2022-12-27T18:03:07.496Z,5.25
2022-12-27T18:05:46.512Z,5.23
2022-12-27T18:08:27.864Z,5.16
2022-12-27T18:11:01.879Z,5.11
2022-12-27T18:13:36.588Z,5.09
2022-12-27T18:16:17.997Z,5.04
2022-12-27T18:18:53.139Z,5.10
2022-12-27T18:21:26.925Z,5.06
2022-12-27T18:23:59.609Z,4.97
2022-12-27T18:26:38.199Z,4.95
2022-12-27T18:29:13.462Z,5.02
2022-12-27T18:31:49.506Z,4.99
2022-12-27T18:34:27.585Z,4.93
2022-12-27T18:37:03.905Z,4.97
2022-12-27T18:39:38.268Z,4.96
2022-12-27T18:42:20.486Z,4.96
2022-12-27T18:44:56.247Z,4.91
2022-12-27T18:47:29.499Z,5.04
2022-12-27T18:50:03.823Z,4.93
2022-12-27T18:52:40.888Z,4.94
2022-12-27T18:55:19.171Z,5.04
2022-12-27T18:58:01.933Z,4.94
2022-12-27T19:00:47.301Z,5.06
2022-12-27T19:03:21.367Z,5.14
2022-12-27T19:06:10.175Z,5.14
2022-12-27T19:08:48.872Z,4.99
2022-12-27T19:11:24.538Z,4.72
2022-12-27T19:13:59.326Z,4.65
2022-12-27T19:16:35.679Z,4.66
2022-12-27T19:19:17.278Z,4.76
2022-12-27T19:21:49.225Z,4.58
2022-12-27T19:24:35.795Z,4.52
2022-12-27T19:27:25.176Z,4.45
2022-12-27T19:29:57.244Z,4.43
2022-12-27T19:32:32.790Z,4.40
2022-12-27T19:35:07.610Z,4.37
2022-12-27T19:37:40.114Z,4.33
2022-12-27T19:40:18.011Z,4.33
2022-12-27T19:42:50.183Z,4.24
2022-12-27T19:45:22.566Z,4.41
2022-12-27T19:47:57.886Z,4.49
2022-12-27T19:50:30.856Z,4.54
2022-12-27T19:53:03.268Z,4.44
2022-12-27T19:55:36.629Z,4.32
2022-12-27T19:58:10.767Z,4.29
2022-12-27T20:00:43.080Z,4.31
2022-12-27T20:03:15.032Z,4.49
2022-12-27T20:06:14.311Z,4.57
2022-12-27T20:08:43.943Z,4.59
2022-12-27T20:11:18.643Z,4.61
2022-12-27T20:13:50.874Z,4.62
2022-12-27T20:16:23.263Z,4.63
2022-12-27T20:18:55.490Z,4.54
2022-12-27T20:21:28.460Z,4.50
2022-12-27T20:24:00.561Z,4.55
2022-12-27T20:26:33.311Z,4.58
2022-12-27T20:29:05.775Z,4.59
2022-12-27T20:31:44.510Z,4.57
2022-12-27T20:34:17.423Z,4.56
2022-12-27T20:36:49.833Z,4.57
2022-12-27T20:39:22.397Z,4.42
2022-12-27T20:41:55.863Z,4.44
2022-12-27T20:44:29.541Z,4.45
2022-12-27T20:47:01.629Z,4.46
2022-12-27T20:49:34.634Z,4.50
2022-12-27T20:52:07.158Z,4.45
2022-12-27T20:54:39.375Z,4.37
2022-12-27T20:57:11.820Z,4.31
2022-12-27T20:59:43.885Z,4.29
2022-12-27T21:02:15.988Z,4.31
2022-12-27T21:04:47.905Z,4.32
2022-12-27T21:07:19.640Z,4.30
2022-12-27T21:09:51.653Z,4.23
2022-12-27T21:12:23.380Z,4.29
2022-12-27T21:14:55.094Z,4.13
2022-12-27T21:17:27.003Z,4.09
2022-12-27T21:19:59.807Z,4.06
2022-12-27T21:22:31.909Z,4.03
2022-12-27T21:25:04.188Z,4.10
2022-12-27T21:27:36.110Z,4.14
2022-12-27T21:30:13.412Z,4.12
2022-12-27T21:32:45.275Z,4.11
2022-12-27T21:35:17.346Z,4.00
2022-12-27T21:37:49.203Z,4.03
2022-12-27T21:40:23.044Z,3.99
2022-12-27T21:42:55.945Z,3.96
2022-12-27T21:45:27.613Z,3.93
2022-12-27T21:47:59.392Z,3.90
2022-12-27T21:50:36.990Z,3.71
2022-12-27T21:53:09.129Z,3.82
2022-12-27T21:55:41.000Z,3.86
2022-12-27T21:58:14.663Z,3.83
2022-12-27T22:00:47.036Z,3.85
2022-12-27T22:03:18.874Z,3.86
2022-12-27T22:05:50.702Z,3.91
2022-12-27T22:08:22.390Z,3.81
2022-12-27T22:10:58.278Z,3.87
2022-12-27T22:13:30.095Z,3.72
2022-12-27T22:16:03.639Z,3.78
2022-12-27T22:18:37.294Z,3.79
2022-12-27T22:21:11.302Z,3.78
2022-12-27T22:23:45.578Z,3.78
2022-12-27T22:26:19.167Z,3.78
2022-12-27T22:28:51.315Z,3.84
2022-12-27T22:31:30.504Z,3.81
2022-12-27T22:34:30.576Z,3.81
2022-12-27T22:37:04.903Z,3.72
2022-12-27T22:39:36.658Z,3.76
2022-12-27T22:42:08.443Z,3.69
2022-12-27T22:44:40.213Z,3.73
2022-12-27T22:47:28.296Z,3.73
2022-12-27T22:50:00.468Z,3.71
2022-12-27T22:52:32.436Z,3.74
2022-12-27T22:55:07.160Z,3.68
2022-12-27T22:57:39.466Z,3.64
2022-12-27T23:00:15.987Z,3.53
2022-12-27T23:02:48.348Z,3.47
2022-12-27T23:05:20.516Z,3.52
2022-12-27T23:08:04.858Z,3.39
2022-12-27T23:10:38.601Z,3.51
2022-12-27T23:13:10.490Z,3.53
2022-12-27T23:15:42.473Z,3.56
2022-12-27T23:18:14.535Z,3.55
2022-12-27T23:21:19.108Z,3.58
2022-12-27T23:23:39.144Z,3.51
2022-12-27T23:26:14.597Z,3.51
2022-12-27T23:28:47.397Z,3.52
2022-12-27T23:31:20.100Z,3.37
2022-12-27T23:33:52.620Z,3.33
2022-12-27T23:36:24.802Z,3.39
2022-12-27T23:38:56.653Z,3.42
2022-12-27T23:41:28.924Z,3.17
2022-12-27T23:44:02.918Z,3.13
2022-12-27T23:46:35.393Z,3.26
2022-12-27T23:49:07.150Z,3.26
2022-12-27T23:51:38.837Z,3.24
2022-12-27T23:54:10.883Z,3.26
2022-12-27T23:56:42.672Z,3.30
2022-12-27T23:59:16.765Z,3.38
